Time;durP1;ratioP1;P1;durP2;ratioP2;P2;SDS_P1;SDS_P2;PMS_P1;PMS_P2;Temp;Humidity;BMP_temperature;BMP_pressure;BME280_temperature;BME280_humidity;BME280_pressure;Samples;Min_cycle;Max_cycle;Signal;HPM_P1;HPM_P2
2023/06/08 00:02:17;;;;;;;0.10;0.10;;;19.80;99.90;;;;;;5045363;28;20248;-81
2023/06/08 00:04:44;;;;;;;0.10;0.10;;;19.70;99.90;;;;;;5047491;28;20228;-81
2023/06/08 00:07:14;;;;;;;0.10;0.10;;;19.60;99.90;;;;;;5047207;28;20210;-81
2023/06/08 00:09:40;;;;;;;0.10;0.10;;;19.60;99.90;;;;;;5046020;28;20190;-81
2023/06/08 00:12:06;;;;;;;0.10;0.10;;;19.50;99.90;;;;;;5044578;28;20186;-81
2023/06/08 00:14:34;;;;;;;0.10;0.10;;;19.50;99.90;;;;;;5044976;28;20685;-81
2023/06/08 00:17:04;;;;;;;0.10;0.10;;;19.40;99.90;;;;;;5046549;28;20235;-80
2023/06/08 00:19:35;;;;;;;0.10;0.10;;;19.20;99.90;;;;;;5045670;28;20239;-81
2023/06/08 00:22:05;;;;;;;0.10;0.10;;;19.10;99.90;;;;;;5046160;28;20186;-81
2023/06/08 00:24:31;;;;;;;11.73;10.60;;;19.00;99.90;;;;;;5046238;28;20833;-80
2023/06/08 00:26:57;;;;;;;0.10;0.10;;;19.00;99.90;;;;;;5045084;28;20232;-80
2023/06/08 00:29:22;;;;;;;0.10;0.10;;;18.80;99.90;;;;;;5046510;28;21267;-80
2023/06/08 00:31:48;;;;;;;0.10;0.10;;;18.70;99.90;;;;;;5045009;28;20190;-80
2023/06/08 00:34:14;;;;;;;0.10;0.10;;;18.70;99.90;;;;;;5044253;28;20211;-81
2023/06/08 00:36:40;;;;;;;0.10;0.10;;;18.70;99.90;;;;;;5045117;28;20210;-81
2023/06/08 00:39:05;;;;;;;0.10;0.10;;;18.70;99.90;;;;;;5045066;28;20213;-81
2023/06/08 00:41:31;;;;;;;0.10;0.10;;;18.60;99.90;;;;;;5044968;28;20637;-81
2023/06/08 00:43:56;;;;;;;0.10;0.10;;;18.60;99.90;;;;;;5045981;28;20178;-80
2023/06/08 00:46:30;;;;;;;0.10;0.10;;;18.70;99.90;;;;;;5046027;28;20809;-80
2023/06/08 00:48:56;;;;;;;0.10;0.10;;;18.70;99.90;;;;;;5044324;28;20182;-80
2023/06/08 00:51:22;;;;;;;0.10;0.10;;;18.60;99.90;;;;;;5043967;28;20182;-81
2023/06/08 00:53:48;;;;;;;0.10;0.10;;;18.60;99.90;;;;;;5043106;28;20190;-80
2023/06/08 00:56:18;;;;;;;0.10;0.10;;;18.50;99.90;;;;;;5044607;28;20235;-81
2023/06/08 00:58:48;;;;;;;0.10;0.10;;;18.40;99.90;;;;;;5044764;28;20174;-80
2023/06/08 01:01:18;;;;;;;0.10;0.10;;;18.30;99.90;;;;;;5045878;28;20674;-81
2023/06/08 01:03:47;;;;;;;0.10;0.10;;;18.10;99.90;;;;;;5044489;28;20191;-81
2023/06/08 01:06:16;;;;;;;0.10;0.10;;;18.00;99.90;;;;;;5045352;28;20217;-81
2023/06/08 01:09:01;;;;;;;0.10;0.10;;;17.90;99.90;;;;;;5044446;28;20199;-81
2023/06/08 01:12:10;;;;;;;0.10;0.10;;;17.90;99.90;;;;;;5045922;28;20189;-80
2023/06/08 01:14:50;;;;;;;0.10;0.10;;;17.80;99.90;;;;;;5044059;28;20205;-80
2023/06/08 01:17:18;;;;;;;0.10;0.10;;;17.80;99.90;;;;;;5045311;28;20280;-81
2023/06/08 01:20:18;;;;;;;0.10;0.10;;;17.70;99.90;;;;;;5045514;28;20186;-80
2023/06/08 01:23:03;;;;;;;0.10;0.10;;;17.80;99.90;;;;;;5018550;28;20613;-81
2023/06/08 01:25:30;;;;;;;0.37;0.37;;;17.70;99.90;;;;;;5043904;28;20184;-80
2023/06/08 01:28:12;;;;;;;0.10;0.10;;;17.60;99.90;;;;;;5044012;28;20181;-80
2023/06/08 01:30:42;;;;;;;0.10;0.10;;;17.70;99.90;;;;;;5045333;28;20223;-81
2023/06/08 01:33:11;;;;;;;0.10;0.10;;;17.50;99.90;;;;;;5044803;28;20174;-80
2023/06/08 01:35:36;;;;;;;0.10;0.10;;;17.50;99.90;;;;;;5043873;28;20619;-81
2023/06/08 01:38:12;;;;;;;0.00;0.00;;;17.50;99.90;;;;;;5044179;28;20213;-81
2023/06/08 01:40:42;;;;;;;0.10;0.10;;;17.40;99.90;;;;;;5044778;28;20273;-81
2023/06/08 01:43:11;;;;;;;0.10;0.10;;;17.30;99.90;;;;;;5044202;28;20194;-81
2023/06/08 01:45:43;;;;;;;0.10;0.10;;;17.40;99.90;;;;;;5043467;28;20189;-81
2023/06/08 01:48:09;;;;;;;0.10;0.10;;;17.30;99.90;;;;;;5045066;28;20195;-81
2023/06/08 01:50:35;;;;;;;0.10;0.10;;;17.20;99.90;;;;;;5044275;28;20220;-81
2023/06/08 01:53:01;;;;;;;0.10;0.10;;;17.20;99.90;;;;;;5052614;28;20839;-81
2023/06/08 01:55:29;;;;;;;0.10;0.10;;;17.20;99.90;;;;;;5044173;28;20288;-80
2023/06/08 01:57:55;;;;;;;0.10;0.10;;;17.20;99.90;;;;;;5045298;28;20178;-80
2023/06/08 02:00:21;;;;;;;0.10;0.10;;;17.20;99.90;;;;;;5044314;28;20200;-81
2023/06/08 02:02:46;;;;;;;0.10;0.10;;;17.10;99.90;;;;;;5043668;28;20181;-81
2023/06/08 02:05:14;;;;;;;0.10;0.10;;;17.10;99.90;;;;;;5044990;28;20201;-81
2023/06/08 02:07:40;;;;;;;0.10;0.10;;;17.10;99.90;;;;;;5043575;28;20212;-81
2023/06/08 02:10:08;;;;;;;0.10;0.10;;;17.20;99.90;;;;;;5044083;28;20249;-81
2023/06/08 02:12:34;;;;;;;0.10;0.10;;;17.00;99.90;;;;;;5044822;28;20182;-81
2023/06/08 02:15:00;;;;;;;0.10;0.10;;;17.10;99.90;;;;;;5045065;28;20271;-81
2023/06/08 02:17:27;;;;;;;0.10;0.10;;;17.00;99.90;;;;;;5047363;28;20506;-81
2023/06/08 02:19:56;;;;;;;0.10;0.10;;;16.90;99.90;;;;;;5047779;28;20181;-81
2023/06/08 02:22:23;;;;;;;0.10;0.10;;;17.00;99.90;;;;;;5048831;28;20178;-81
2023/06/08 02:24:49;;;;;;;0.10;0.10;;;17.00;99.90;;;;;;5047110;28;20186;-81
2023/06/08 02:27:15;;;;;;;0.10;0.10;;;17.00;99.90;;;;;;5048113;28;20197;-81
2023/06/08 02:29:41;;;;;;;0.10;0.10;;;17.10;99.90;;;;;;5047623;28;20186;-81
2023/06/08 02:32:07;;;;;;;0.10;0.10;;;17.00;99.90;;;;;;5048821;28;20451;-81
2023/06/08 02:34:35;;;;;;;0.10;0.10;;;17.00;99.90;;;;;;5055662;28;20284;-80
2023/06/08 02:37:01;;;;;;;0.10;0.10;;;17.10;99.90;;;;;;5047441;28;20205;-81
2023/06/08 02:39:26;;;;;;;0.10;0.10;;;17.20;99.90;;;;;;5047247;28;20182;-81
2023/06/08 02:41:52;;;;;;;0.10;0.10;;;17.30;99.90;;;;;;5047162;28;20659;-81
2023/06/08 02:44:17;;;;;;;0.10;0.10;;;17.30;99.90;;;;;;5046254;28;20216;-81
2023/06/08 02:46:43;;;;;;;0.10;0.10;;;17.40;99.90;;;;;;5046339;28;20227;-81
2023/06/08 02:49:08;;;;;;;0.10;0.10;;;17.40;99.90;;;;;;5045899;28;21193;-81
2023/06/08 02:51:35;;;;;;;0.10;0.10;;;17.20;99.90;;;;;;5047539;28;20193;-81
2023/06/08 02:54:01;;;;;;;0.10;0.10;;;17.20;99.90;;;;;;5045991;28;20285;-81
2023/06/08 02:56:26;;;;;;;0.10;0.10;;;17.20;99.90;;;;;;5045559;28;20288;-81
2023/06/08 02:58:52;;;;;;;0.10;0.10;;;17.10;99.90;;;;;;5047692;28;20239;-81
2023/06/08 03:01:18;;;;;;;0.10;0.10;;;17.00;99.90;;;;;;5044894;28;20181;-81
2023/06/08 03:03:46;;;;;;;0.10;0.10;;;17.00;99.90;;;;;;5045827;28;20190;-81
2023/06/08 03:06:17;;;;;;;0.10;0.10;;;16.90;99.90;;;;;;5045420;28;20254;-81
2023/06/08 03:08:43;;;;;;;0.10;0.10;;;16.80;99.90;;;;;;5047779;28;21235;-81
2023/06/08 03:11:09;;;;;;;0.10;0.10;;;16.90;99.90;;;;;;5048053;28;20268;-81
2023/06/08 03:13:35;;;;;;;0.10;0.10;;;16.80;99.90;;;;;;5047637;28;20186;-81
2023/06/08 03:16:00;;;;;;;0.37;0.37;;;16.70;99.90;;;;;;5046519;28;20263;-81
2023/06/08 03:18:26;;;;;;;0.10;0.10;;;16.60;99.90;;;;;;5048111;28;20188;-81
2023/06/08 03:20:51;;;;;;;0.10;0.10;;;16.50;99.90;;;;;;5045354;28;20526;-81
2023/06/08 03:23:19;;;;;;;0.10;0.10;;;16.50;99.90;;;;;;5047862;28;20264;-80
2023/06/08 03:25:49;;;;;;;0.10;0.10;;;16.40;99.90;;;;;;5047718;28;20208;-80
2023/06/08 03:28:18;;;;;;;0.10;0.10;;;16.50;99.90;;;;;;5047488;28;20178;-81
2023/06/08 03:30:44;;;;;;;0.10;0.10;;;16.60;99.90;;;;;;5047377;28;20239;-81
2023/06/08 03:33:11;;;;;;;0.10;0.10;;;16.70;99.90;;;;;;5054698;28;20243;-80
2023/06/08 03:35:37;;;;;;;0.00;0.00;;;16.70;99.90;;;;;;5047468;28;20236;-80
2023/06/08 03:38:03;;;;;;;0.10;0.10;;;16.70;99.90;;;;;;5053187;28;20292;-81
2023/06/08 03:40:29;;;;;;;0.10;0.10;;;16.60;99.90;;;;;;5055247;28;20190;-81
2023/06/08 03:42:54;;;;;;;0.10;0.10;;;16.80;99.90;;;;;;5045930;28;20186;-80
2023/06/08 03:45:20;;;;;;;0.10;0.10;;;17.10;99.90;;;;;;5048366;28;20213;-81
2023/06/08 03:47:46;;;;;;;0.10;0.10;;;17.30;99.90;;;;;;5047727;28;20201;-81
2023/06/08 03:50:11;;;;;;;0.10;0.10;;;17.60;99.90;;;;;;5046396;28;20972;-81
2023/06/08 03:52:38;;;;;;;0.10;0.10;;;17.80;99.90;;;;;;5045886;28;20188;-81
2023/06/08 03:55:07;;;;;;;0.10;0.10;;;18.10;99.90;;;;;;5046290;28;20341;-81
2023/06/08 03:57:33;;;;;;;0.10;0.10;;;18.50;99.90;;;;;;5045533;28;20199;-81
2023/06/08 03:59:58;;;;;;;0.10;0.10;;;18.50;99.90;;;;;;5046965;28;20198;-81
2023/06/08 04:02:24;;;;;;;0.10;0.10;;;18.70;99.90;;;;;;5045842;28;20222;-81
2023/06/08 04:04:50;;;;;;;0.10;0.10;;;18.80;99.90;;;;;;5045582;28;20354;-80
2023/06/08 04:07:16;;;;;;;0.10;0.10;;;18.90;99.90;;;;;;5045508;28;20209;-81
2023/06/08 04:09:42;;;;;;;0.10;0.10;;;19.30;99.90;;;;;;5046733;28;20217;-81
2023/06/08 04:12:08;;;;;;;0.10;0.10;;;19.90;99.90;;;;;;5045516;28;20223;-81
2023/06/08 04:14:33;;;;;;;0.10;0.10;;;19.80;99.90;;;;;;5044715;28;20617;-81
2023/06/08 04:16:59;;;;;;;0.20;0.20;;;20.00;99.90;;;;;;5045661;28;20204;-81
2023/06/08 04:19:25;;;;;;;0.10;0.10;;;20.10;99.90;;;;;;5046918;28;20186;-81
2023/06/08 04:21:56;;;;;;;0.10;0.10;;;20.50;99.90;;;;;;5045261;28;20557;-80
2023/06/08 04:24:24;;;;;;;0.10;0.10;;;20.00;99.90;;;;;;5045873;28;20186;-81
2023/06/08 04:26:50;;;;;;;0.10;0.10;;;19.30;99.90;;;;;;5047567;28;20757;-80
2023/06/08 04:29:16;;;;;;;0.10;0.10;;;18.90;99.90;;;;;;5047491;28;20182;-80
2023/06/08 04:31:42;;;;;;;0.10;0.10;;;18.90;99.90;;;;;;5046817;28;20192;-81
2023/06/08 04:34:08;;;;;;;0.10;0.10;;;18.90;99.90;;;;;;5047048;28;20188;-81
2023/06/08 04:36:34;;;;;;;0.10;0.10;;;18.80;99.90;;;;;;5046300;28;20212;-81
2023/06/08 04:39:00;;;;;;;0.10;0.10;;;19.00;99.90;;;;;;5047435;28;20256;-80
2023/06/08 04:41:29;;;;;;;0.10;0.10;;;19.00;99.90;;;;;;5045789;28;20609;-81
2023/06/08 04:43:55;;;;;;;0.10;0.10;;;18.80;99.90;;;;;;5047941;28;20184;-81
2023/06/08 04:46:25;;;;;;;0.10;0.10;;;18.40;99.90;;;;;;5045285;28;20697;-80
2023/06/08 04:48:51;;;;;;;0.10;0.10;;;18.00;99.90;;;;;;5045487;28;20239;-80
2023/06/08 04:51:17;;;;;;;0.10;0.10;;;17.80;99.90;;;;;;5045682;28;20270;-81
2023/06/08 04:53:43;;;;;;;0.10;0.10;;;17.60;99.90;;;;;;5045857;28;20192;-81
2023/06/08 04:56:18;;;;;;;0.10;0.10;;;17.50;99.90;;;;;;5045666;28;20688;-80
2023/06/08 04:58:45;;;;;;;0.10;0.10;;;17.30;99.90;;;;;;5045424;28;20203;-81
2023/06/08 05:01:10;;;;;;;0.10;0.10;;;17.30;99.90;;;;;;5045112;28;20189;-80
2023/06/08 05:03:36;;;;;;;0.10;0.10;;;17.20;99.90;;;;;;5045325;28;20186;-80
2023/06/08 05:06:01;;;;;;;0.10;0.10;;;17.20;99.90;;;;;;5046617;28;20248;-80
2023/06/08 05:08:27;;;;;;;0.10;0.10;;;17.20;99.90;;;;;;5045067;28;20682;-80
2023/06/08 05:10:52;;;;;;;0.10;0.10;;;17.30;99.90;;;;;;5046426;28;20190;-80
2023/06/08 05:13:18;;;;;;;0.10;0.10;;;17.40;99.90;;;;;;5045389;28;20227;-80
2023/06/08 05:15:43;;;;;;;0.10;0.10;;;17.60;99.90;;;;;;5044724;28;21271;-81
2023/06/08 05:18:09;;;;;;;0.10;0.10;;;17.80;99.90;;;;;;5044062;28;20178;-81
2023/06/08 05:20:35;;;;;;;0.10;0.10;;;18.00;99.90;;;;;;5046219;28;20193;-81
2023/06/08 05:23:00;;;;;;;0.10;0.10;;;18.20;99.90;;;;;;5046024;28;20177;-81
2023/06/08 05:25:26;;;;;;;0.10;0.10;;;18.30;99.90;;;;;;5044844;28;20206;-81
2023/06/08 05:27:51;;;;;;;0.10;0.10;;;18.50;99.90;;;;;;5044542;28;20524;-81
2023/06/08 05:30:17;;;;;;;0.10;0.10;;;18.60;99.90;;;;;;5044668;28;20727;-81
2023/06/08 05:32:42;;;;;;;0.10;0.10;;;18.80;99.90;;;;;;5044408;28;20240;-81
2023/06/08 05:35:08;;;;;;;0.10;0.10;;;19.10;99.90;;;;;;5045879;28;20197;-81
2023/06/08 05:37:34;;;;;;;0.10;0.10;;;19.30;99.90;;;;;;5045979;28;20733;-80
2023/06/08 05:39:59;;;;;;;0.10;0.10;;;19.30;99.90;;;;;;5046456;28;20181;-80
2023/06/08 05:42:25;;;;;;;0.30;0.30;;;19.20;99.90;;;;;;5045802;28;20192;-81
2023/06/08 05:44:50;;;;;;;0.10;0.10;;;19.00;99.90;;;;;;5046197;28;20192;-80
2023/06/08 05:47:16;;;;;;;0.10;0.10;;;18.80;99.90;;;;;;5045538;28;20205;-81
2023/06/08 05:49:41;;;;;;;0.10;0.10;;;18.80;99.90;;;;;;5046653;28;20193;-81
2023/06/08 05:52:07;;;;;;;0.10;0.10;;;18.70;99.90;;;;;;5045971;28;20181;-81
2023/06/08 05:54:32;;;;;;;0.10;0.10;;;18.80;99.90;;;;;;5043817;28;20197;-81
2023/06/08 05:56:58;;;;;;;0.10;0.10;;;19.10;99.90;;;;;;5053592;28;20198;-81
2023/06/08 05:59:23;;;;;;;0.10;0.10;;;19.20;99.90;;;;;;5046241;28;20185;-81
2023/06/08 06:01:50;;;;;;;0.10;0.10;;;19.40;99.90;;;;;;5044749;28;20178;-81
2023/06/08 06:04:15;;;;;;;0.10;0.10;;;19.60;99.90;;;;;;5045590;28;20697;-80
2023/06/08 06:06:41;;;;;;;0.10;0.10;;;19.60;99.90;;;;;;5044811;28;20209;-81
2023/06/08 06:09:07;;;;;;;0.10;0.10;;;19.70;99.90;;;;;;5045810;28;20912;-81
2023/06/08 06:11:32;;;;;;;7.33;3.40;;;19.90;99.90;;;;;;5044258;28;20196;-81
2023/06/08 06:13:58;;;;;;;0.10;0.10;;;19.80;99.90;;;;;;5045634;28;20188;-81
2023/06/08 06:16:23;;;;;;;0.10;0.10;;;19.70;99.90;;;;;;5043859;28;20228;-81
2023/06/08 06:18:50;;;;;;;0.10;0.10;;;19.60;99.90;;;;;;5044471;28;20186;-81
2023/06/08 06:21:16;;;;;;;0.10;0.10;;;19.50;99.90;;;;;;5044481;28;20545;-81
2023/06/08 06:23:41;;;;;;;0.10;0.10;;;19.30;99.90;;;;;;5044841;28;20280;-81
2023/06/08 06:26:07;;;;;;;0.10;0.10;;;19.30;99.90;;;;;;5044539;28;20217;-81
2023/06/08 06:28:32;;;;;;;0.10;0.10;;;19.20;99.90;;;;;;5044008;28;20298;-81
2023/06/08 06:30:58;;;;;;;0.10;0.10;;;19.10;99.90;;;;;;5043476;28;20178;-81
2023/06/08 06:33:23;;;;;;;0.10;0.10;;;19.00;99.90;;;;;;5043397;28;20194;-80
2023/06/08 06:35:50;;;;;;;0.10;0.10;;;19.00;99.90;;;;;;5043550;28;20263;-81
2023/06/08 06:38:16;;;;;;;0.10;0.10;;;18.90;99.90;;;;;;5043290;28;21019;-81
2023/06/08 06:40:41;;;;;;;0.10;0.10;;;18.90;99.90;;;;;;5043429;28;20218;-80
2023/06/08 06:43:07;;;;;;;0.10;0.10;;;18.80;99.90;;;;;;5042719;28;20232;-81
2023/06/08 06:45:33;;;;;;;0.40;0.40;;;18.80;99.90;;;;;;5043104;28;20212;-81
2023/06/08 06:47:58;;;;;;;0.10;0.10;;;18.80;99.90;;;;;;5045009;28;20706;-81
2023/06/08 06:50:24;;;;;;;0.10;0.10;;;18.80;99.90;;;;;;5043467;28;20546;-80
2023/06/08 06:52:49;;;;;;;0.10;0.10;;;18.80;99.90;;;;;;5044240;28;20280;-81
2023/06/08 06:55:15;;;;;;;0.10;0.10;;;18.80;99.90;;;;;;5042659;28;20202;-80
2023/06/08 06:57:40;;;;;;;0.30;0.30;;;18.80;99.90;;;;;;5045262;28;20610;-80
2023/06/08 07:00:10;;;;;;;0.13;0.13;;;18.80;99.90;;;;;;5045391;28;20185;-80
2023/06/08 07:02:37;;;;;;;0.10;0.10;;;18.90;99.90;;;;;;5045789;28;20582;-81
2023/06/08 07:05:07;;;;;;;0.10;0.10;;;19.00;99.90;;;;;;5050178;28;20279;-80
2023/06/08 07:07:33;;;;;;;0.10;0.10;;;19.10;99.90;;;;;;5047983;28;20212;-81
2023/06/08 07:09:59;;;;;;;0.10;0.10;;;19.20;99.90;;;;;;5049168;28;20591;-81
2023/06/08 07:12:24;;;;;;;0.10;0.10;;;19.20;99.90;;;;;;5046157;28;20182;-81
2023/06/08 07:14:50;;;;;;;0.10;0.10;;;19.30;99.90;;;;;;5048096;28;20213;-80
2023/06/08 07:17:15;;;;;;;0.10;0.10;;;19.40;99.90;;;;;;5047253;28;20198;-81
2023/06/08 07:19:41;;;;;;;0.10;0.10;;;19.60;99.90;;;;;;5047583;28;20293;-81
2023/06/08 07:22:07;;;;;;;0.10;0.10;;;20.00;99.90;;;;;;5048632;28;20178;-81
2023/06/08 07:24:33;;;;;;;0.10;0.10;;;20.40;99.90;;;;;;5046955;28;20182;-81
2023/06/08 07:26:58;;;;;;;0.10;0.10;;;20.70;99.90;;;;;;5047615;28;20206;-81
2023/06/08 07:29:24;;;;;;;0.10;0.10;;;20.90;99.90;;;;;;5046099;28;20197;-81
2023/06/08 07:31:49;;;;;;;0.27;0.27;;;21.40;99.90;;;;;;5046764;28;20690;-81
2023/06/08 07:34:15;;;;;;;0.10;0.10;;;21.90;99.90;;;;;;5048000;28;20193;-81
2023/06/08 07:36:40;;;;;;;0.10;0.10;;;22.50;99.90;;;;;;5047888;28;20213;-81
2023/06/08 07:39:06;;;;;;;0.10;0.10;;;22.40;99.90;;;;;;5046591;28;20174;-81
2023/06/08 07:41:31;;;;;;;0.10;0.10;;;22.10;99.90;;;;;;5047418;28;20182;-81
2023/06/08 07:43:57;;;;;;;0.10;0.10;;;22.50;99.90;;;;;;5046126;28;20710;-81
2023/06/08 07:46:23;;;;;;;0.10;0.10;;;22.80;99.90;;;;;;5046256;28;20230;-81
2023/06/08 07:48:49;;;;;;;0.10;0.10;;;22.90;99.90;;;;;;5047642;28;20201;-81
2023/06/08 07:51:14;;;;;;;0.10;0.10;;;23.20;99.90;;;;;;5046219;28;20186;-81
2023/06/08 07:53:41;;;;;;;0.10;0.10;;;22.90;99.90;;;;;;5045971;28;20232;-81
2023/06/08 07:56:07;;;;;;;0.10;0.10;;;22.70;99.90;;;;;;5045650;28;20220;-81
2023/06/08 07:58:33;;;;;;;0.10;0.10;;;22.90;99.90;;;;;;5046599;28;20190;-81
2023/06/08 08:01:02;;;;;;;0.10;0.10;;;22.80;99.90;;;;;;5046938;28;20242;-81
2023/06/08 08:03:28;;;;;;;0.20;0.20;;;23.20;99.90;;;;;;5045486;28;20316;-81
2023/06/08 08:05:53;;;;;;;0.10;0.10;;;22.80;99.90;;;;;;5045624;28;20729;-81
2023/06/08 08:08:19;;;;;;;0.10;0.10;;;22.40;99.90;;;;;;5047167;28;20186;-81
2023/06/08 08:10:45;;;;;;;0.10;0.10;;;22.40;99.90;;;;;;5045544;28;20255;-81
2023/06/08 08:13:12;;;;;;;0.10;0.10;;;22.60;99.90;;;;;;5047594;28;20224;-81
2023/06/08 08:15:39;;;;;;;0.10;0.10;;;23.20;99.90;;;;;;5047352;28;20712;-81
2023/06/08 08:18:05;;;;;;;0.10;0.10;;;23.20;99.90;;;;;;5048444;28;20166;-81
2023/06/08 08:20:30;;;;;;;0.10;0.10;;;23.00;99.90;;;;;;5046743;28;20655;-81
2023/06/08 08:22:56;;;;;;;0.20;0.20;;;23.20;99.90;;;;;;5047883;28;20245;-81
2023/06/08 08:25:21;;;;;;;0.10;0.10;;;23.40;99.90;;;;;;5046546;28;20254;-81
2023/06/08 08:27:47;;;;;;;0.10;0.10;;;23.40;99.90;;;;;;5046066;28;20231;-81
2023/06/08 08:30:14;;;;;;;0.10;0.10;;;23.50;99.90;;;;;;5048148;28;20206;-81
2023/06/08 08:32:39;;;;;;;0.77;0.77;;;23.60;99.90;;;;;;5045916;28;20663;-81
2023/06/08 08:35:05;;;;;;;0.10;0.10;;;23.70;99.90;;;;;;5047698;28;20202;-81
2023/06/08 08:37:31;;;;;;;0.20;0.20;;;23.80;99.90;;;;;;5044263;28;20296;-81
2023/06/08 08:39:57;;;;;;;0.10;0.10;;;23.70;99.90;;;;;;5045673;28;20186;-81
2023/06/08 08:42:26;;;;;;;0.10;0.10;;;23.60;99.90;;;;;;5045759;28;20729;-81
2023/06/08 08:44:56;;;;;;;0.10;0.10;;;24.50;99.90;;;;;;5045811;28;20216;-81
2023/06/08 08:47:30;;;;;;;0.10;0.10;;;24.50;99.90;;;;;;5045414;28;20252;-81
2023/06/08 08:50:03;;;;;;;0.10;0.10;;;24.70;99.90;;;;;;5045619;28;21164;-81
2023/06/08 08:52:33;;;;;;;0.10;0.10;;;24.60;99.90;;;;;;5046288;28;20217;-81
2023/06/08 08:55:00;;;;;;;0.10;0.10;;;24.50;99.90;;;;;;5045521;28;20253;-81
2023/06/08 08:57:30;;;;;;;0.10;0.10;;;24.50;99.90;;;;;;5044968;28;20297;-81
2023/06/08 08:59:56;;;;;;;0.10;0.10;;;24.60;99.90;;;;;;5045291;28;20216;-81
2023/06/08 09:02:22;;;;;;;0.10;0.10;;;25.40;99.90;;;;;;5044626;28;20558;-81
2023/06/08 09:04:48;;;;;;;0.10;0.10;;;25.70;99.90;;;;;;5044608;28;20201;-81
2023/06/08 09:07:21;;;;;;;0.10;0.10;;;25.30;99.90;;;;;;5045052;28;20216;-81
2023/06/08 09:10:24;;;;;;;0.10;0.10;;;25.50;99.90;;;;;;5043770;28;20232;-81
2023/06/08 09:12:51;;;;;;;0.10;0.10;;;25.50;99.90;;;;;;5043765;28;20200;-81
2023/06/08 09:15:34;;;;;;;0.10;0.10;;;25.70;99.90;;;;;;5046142;28;20220;-81
2023/06/08 09:18:13;;;;;;;0.10;0.10;;;25.00;99.90;;;;;;5045910;28;20196;-81
2023/06/08 09:20:39;;;;;;;0.10;0.10;;;25.30;99.90;;;;;;5045776;28;20193;-81
2023/06/08 09:23:20;;;;;;;0.10;0.10;;;24.80;99.90;;;;;;5044451;28;20188;-81
2023/06/08 09:25:47;;;;;;;0.10;0.10;;;24.60;99.90;;;;;;5044049;28;20357;-81
2023/06/08 09:28:26;;;;;;;0.10;0.10;;;24.90;99.90;;;;;;5046054;28;20174;-81
2023/06/08 09:30:55;;;;;;;0.10;0.10;;;24.60;99.90;;;;;;5044237;28;20197;-82
2023/06/08 09:33:29;;;;;;;0.10;0.10;;;24.60;99.90;;;;;;5045135;28;20188;-81
2023/06/08 09:35:57;;;;;;;0.10;0.10;;;24.50;99.90;;;;;;5046010;28;20208;-81
2023/06/08 09:38:29;;;;;;;0.10;0.10;;;24.60;99.90;;;;;;5045542;28;20603;-81
2023/06/08 09:41:14;;;;;;;0.10;0.10;;;25.20;99.90;;;;;;5046368;28;20170;-82
2023/06/08 09:43:45;;;;;;;0.10;0.10;;;25.30;99.90;;;;;;5044347;28;20189;-81
2023/06/08 09:46:17;;;;;;;0.10;0.10;;;25.60;99.90;;;;;;5044251;28;20232;-81
2023/06/08 09:48:53;;;;;;;0.10;0.10;;;25.00;99.90;;;;;;5044391;28;20200;-81
2023/06/08 09:51:21;;;;;;;0.10;0.10;;;25.00;99.90;;;;;;5044672;28;20276;-81
2023/06/08 09:53:56;;;;;;;0.10;0.10;;;25.40;99.90;;;;;;5046153;28;20261;-81
2023/06/08 09:56:23;;;;;;;0.10;0.10;;;25.40;99.90;;;;;;5044165;28;20216;-81
2023/06/08 09:58:52;;;;;;;0.10;0.10;;;25.10;99.90;;;;;;5045297;28;20184;-81
2023/06/08 10:01:23;;;;;;;0.30;0.30;;;24.80;99.90;;;;;;5043564;28;20186;-81
2023/06/08 10:03:51;;;;;;;0.10;0.10;;;25.60;99.90;;;;;;5044225;28;20193;-81
2023/06/08 10:06:18;;;;;;;0.10;0.10;;;25.90;99.90;;;;;;5044070;28;20255;-82
2023/06/08 10:08:48;;;;;;;0.10;0.10;;;26.50;99.90;;;;;;5046089;28;20651;-81
2023/06/08 10:11:15;;;;;;;0.10;0.10;;;26.80;99.90;;;;;;5045310;28;20639;-82
2023/06/08 10:13:40;;;;;;;0.10;0.10;;;26.80;99.90;;;;;;5044193;28;20221;-81
2023/06/08 10:16:07;;;;;;;0.10;0.10;;;27.10;99.90;;;;;;5043430;28;20240;-81
2023/06/08 10:18:33;;;;;;;0.30;0.30;;;26.80;99.90;;;;;;5044191;28;20197;-81
2023/06/08 10:21:01;;;;;;;0.10;0.10;;;26.30;99.90;;;;;;5043492;28;20173;-81
2023/06/08 10:23:27;;;;;;;0.10;0.10;;;25.80;99.90;;;;;;5043951;28;20231;-81
2023/06/08 10:25:55;;;;;;;0.10;0.10;;;26.40;99.90;;;;;;5045051;28;20205;-81
2023/06/08 10:28:21;;;;;;;0.10;0.10;;;25.80;99.90;;;;;;5043539;28;20197;-81
2023/06/08 10:30:46;;;;;;;0.10;0.10;;;26.20;99.90;;;;;;5043539;28;20213;-81
2023/06/08 10:33:20;;;;;;;0.10;0.10;;;25.80;99.90;;;;;;5044329;28;20170;-81
2023/06/08 10:36:06;;;;;;;0.10;0.10;;;25.70;99.90;;;;;;5043460;28;20217;-81
2023/06/08 10:38:38;;;;;;;0.10;0.10;;;25.70;99.90;;;;;;5047116;28;20217;-82
2023/06/08 10:41:03;;;;;;;0.10;0.10;;;25.90;99.90;;;;;;5047418;28;20192;-81
2023/06/08 10:43:29;;;;;;;0.10;0.10;;;25.80;99.90;;;;;;5050298;28;20269;-81
2023/06/08 10:45:55;;;;;;;0.10;0.10;;;25.90;99.90;;;;;;5049921;28;20223;-81
2023/06/08 10:48:22;;;;;;;0.10;0.10;;;26.70;99.90;;;;;;5048256;28;20247;-81
2023/06/08 10:50:51;;;;;;;0.10;0.10;;;27.20;99.90;;;;;;5049898;28;20603;-81
2023/06/08 10:53:20;;;;;;;0.10;0.10;;;26.40;99.90;;;;;;5050422;28;20219;-82
2023/06/08 10:55:50;;;;;;;0.10;0.10;;;26.50;99.90;;;;;;5047860;28;20252;-81
2023/06/08 10:58:22;;;;;;;0.10;0.10;;;26.50;99.90;;;;;;5047596;28;20174;-81
2023/06/08 11:00:52;;;;;;;0.10;0.10;;;26.50;99.90;;;;;;5046487;28;20178;-81
2023/06/08 11:03:21;;;;;;;0.10;0.10;;;26.10;99.90;;;;;;5047925;28;20186;-81
2023/06/08 11:05:53;;;;;;;0.10;0.10;;;26.60;99.90;;;;;;5050239;28;20686;-81
2023/06/08 11:08:19;;;;;;;0.10;0.10;;;26.10;99.90;;;;;;5050673;28;20205;-81
2023/06/08 11:10:52;;;;;;;0.13;0.13;;;25.80;99.90;;;;;;5049735;28;20182;-81
2023/06/08 11:13:18;;;;;;;0.10;0.10;;;26.10;99.90;;;;;;5050120;28;20268;-81
2023/06/08 11:15:48;;;;;;;0.10;0.10;;;26.50;99.90;;;;;;5050222;28;20355;-81
2023/06/08 11:18:16;;;;;;;0.10;0.10;;;26.90;99.90;;;;;;5052356;28;20178;-81
2023/06/08 11:20:42;;;;;;;0.20;0.20;;;26.60;99.90;;;;;;5050705;28;20182;-81
2023/06/08 11:23:10;;;;;;;0.10;0.10;;;26.50;99.90;;;;;;5050613;28;20178;-81
2023/06/08 11:25:36;;;;;;;0.10;0.10;;;26.50;99.90;;;;;;5049244;28;20185;-81
2023/06/08 11:28:02;;;;;;;0.10;0.10;;;26.60;99.90;;;;;;5048779;28;20601;-80
2023/06/08 11:30:31;;;;;;;0.30;0.30;;;26.60;99.90;;;;;;5048975;28;20213;-81
2023/06/08 11:32:57;;;;;;;0.10;0.10;;;26.60;99.90;;;;;;5048280;28;20559;-81
2023/06/08 11:35:23;;;;;;;0.10;0.10;;;26.70;99.90;;;;;;5050146;28;20224;-81
2023/06/08 11:37:50;;;;;;;0.10;0.10;;;27.20;99.90;;;;;;5049077;28;20897;-81
2023/06/08 11:40:16;;;;;;;0.10;0.10;;;27.40;99.90;;;;;;5047799;28;20177;-81
2023/06/08 11:42:42;;;;;;;3.13;2.95;;;27.90;99.90;;;;;;5048770;28;20205;-81
2023/06/08 11:45:10;;;;;;;0.10;0.10;;;27.80;99.90;;;;;;5047838;28;20240;-81
2023/06/08 11:47:36;;;;;;;0.10;0.10;;;27.40;99.90;;;;;;5048171;28;20675;-81
2023/06/08 11:50:03;;;;;;;0.10;0.10;;;27.60;99.90;;;;;;5047536;28;20216;-81
2023/06/08 11:52:33;;;;;;;0.10;0.10;;;27.30;99.90;;;;;;5057833;28;20185;-81
2023/06/08 11:55:04;;;;;;;0.10;0.10;;;26.90;99.90;;;;;;5047628;28;20205;-81
2023/06/08 11:57:51;;;;;;;0.10;0.10;;;27.30;99.90;;;;;;5047861;28;20233;-81
2023/06/08 12:00:35;;;;;;;0.10;0.10;;;28.20;99.90;;;;;;5047689;28;20170;-81
2023/06/08 12:03:01;;;;;;;0.10;0.10;;;28.10;99.90;;;;;;5047734;28;21055;-81
2023/06/08 12:05:32;;;;;;;0.10;0.10;;;27.30;99.90;;;;;;5048157;28;20224;-81
2023/06/08 12:08:25;;;;;;;0.10;0.10;;;27.70;99.90;;;;;;5047214;28;20186;-80
2023/06/08 12:10:52;;;;;;;0.10;0.10;;;28.00;99.90;;;;;;5046145;28;20198;-81
2023/06/08 12:13:22;;;;;;;0.10;0.10;;;27.70;99.90;;;;;;5047435;28;20269;-80
2023/06/08 12:15:50;;;;;;;0.10;0.10;;;27.50;99.90;;;;;;5047641;28;20630;-80
2023/06/08 12:18:17;;;;;;;0.10;0.10;;;27.60;99.90;;;;;;5046379;28;20661;-81
2023/06/08 12:20:51;;;;;;;0.10;0.10;;;28.10;99.90;;;;;;5047325;28;20196;-81
2023/06/08 12:23:16;;;;;;;0.10;0.10;;;28.80;99.90;;;;;;5046647;28;20608;-81
2023/06/08 12:25:42;;;;;;;0.10;0.10;;;28.70;99.90;;;;;;5047689;28;20253;-81
2023/06/08 12:28:19;;;;;;;0.10;0.10;;;28.30;99.90;;;;;;5045854;28;20244;-81
2023/06/08 12:30:45;;;;;;;0.10;0.10;;;28.10;99.90;;;;;;5045975;28;20662;-81
2023/06/08 12:33:16;;;;;;;0.10;0.10;;;28.50;99.90;;;;;;5045350;28;20185;-80
2023/06/08 12:35:42;;;;;;;0.10;0.10;;;28.20;99.90;;;;;;5045293;28;20232;-81
2023/06/08 12:38:07;;;;;;;0.10;0.10;;;28.50;99.90;;;;;;5046379;28;20591;-81
2023/06/08 12:40:33;;;;;;;0.10;0.10;;;28.40;99.90;;;;;;5046579;28;20238;-81
2023/06/08 12:42:58;;;;;;;0.10;0.10;;;28.90;99.90;;;;;;5044578;28;20761;-81
2023/06/08 12:45:24;;;;;;;0.10;0.10;;;28.60;99.90;;;;;;5044636;28;20197;-81
2023/06/08 12:47:49;;;;;;;0.10;0.10;;;29.20;99.90;;;;;;5045715;28;20697;-81
2023/06/08 12:50:22;;;;;;;0.10;0.10;;;29.50;99.90;;;;;;5045531;28;20209;-81
2023/06/08 12:52:48;;;;;;;0.10;0.10;;;29.40;99.90;;;;;;5045825;28;20173;-81